Itasca, IL

21:48 CST le 23 novembre 2014 (GMT -0600)
Du Page | Change Station
CLOSE
Current Station
Aéroport
Location: Chicago DuPage,
Altitude: 758 ft
Stations météo à proximité

Alt. 758 ft 41.90 °N, 88.25 °W | Updated 9 minutes ago

Pluie
Pluie
50 ° F
Paraît 50 ° F
N
0
Vent Variable Vent de Nord

Aujourd'hui
Haut(e) -- | Bas -- ° F
--% Risque de précip.
Hier
Haut(e) -- | Bas -- ° F
Precip. -- pouce
6:51 AM 4:25 PM
Lune montante, 3% visible
Pression 29.17 pouce
Visibilité 2.5 Miles terrestres
Nuages Couvert 400 ft
Point de rosée 49 ° F
Humidité 96%
Précipitations 0.51 pouce
Profondeur de la couche neigeuse Non disponible.
UV 0 sur 12
Pollen .10 sur 12
Qualité de l'air Non disponible.
Flu Activity Non disponible.
SPECI KDPA 240339Z 00000KT 2 1/2SM -RA BR OVC004 10/09 A2917 RMK AO2 P0005 T01000094

More Conditions Fewer Conditions

Pression 29.17 pouce
Visibilité 2.5 Miles terrestres
Nuages Couvert 400 ft
Point de rosée 49 ° F
Humidité 96%
Précipitations 0.51 pouce
Profondeur de la couche neigeuse Non disponible.
UV 0 sur 12
Pollen .10 sur 12
Qualité de l'air Non disponible.
Flu Activity Non disponible.
SPECI KDPA 240339Z 00000KT 2 1/2SM -RA BR OVC004 10/09 A2917 RMK AO2 P0005 T01000094

More Conditions Fewer Conditions

10-Day Weather Forecast

Almanac

Astronomie

Nov. 23, 2014 Lever Coucher
Temps réel
Crépuscule civil
Crépuscule nautique
Crépuscule astronomique
Lune
Durée de lumière visible
Longueur du jour
Tomorrow will be .
, % of the Moon is Illuminated

Extrêmes aujourd'hui

State Highs State Lows

Community

WunderPhotos

Upload Photos

1,773,262 Photos téléchargées !

WunderBlogs® & News

Nearby

Qualité de l'air

  Qualité de l'air Indice de la qualité de l'air Polluant
Not available.

Épaisseur de neige

Station Depth Altitude

Activité sismique

Ville Distance Mag. Time & Date
Minimum magnitude displayed is 2.5.

Températures des eaux côtières

Lieu Température

Stations météo à proximité